sensor_id;sensor_type;location;lat;lon;timestamp;P1;durP1;ratioP1;P2;durP2;ratioP2
8488;SDS011;4281;45.772;12.852;2024-03-02T00:01:06;6.80;;;5.27;;
8488;SDS011;4281;45.772;12.852;2024-03-02T00:03:35;9.80;;;5.47;;
8488;SDS011;4281;45.772;12.852;2024-03-02T00:06:04;6.77;;;4.97;;
8488;SDS011;4281;45.772;12.852;2024-03-02T00:08:32;6.60;;;5.27;;
8488;SDS011;4281;45.772;12.852;2024-03-02T00:11:00;7.83;;;5.83;;
8488;SDS011;4281;45.772;12.852;2024-03-02T00:13:29;7.37;;;5.70;;
8488;SDS011;4281;45.772;12.852;2024-03-02T00:15:58;8.63;;;5.30;;
8488;SDS011;4281;45.772;12.852;2024-03-02T00:18:26;6.70;;;5.00;;
8488;SDS011;4281;45.772;12.852;2024-03-02T00:20:59;8.37;;;4.80;;
8488;SDS011;4281;45.772;12.852;2024-03-02T00:23:27;7.17;;;5.00;;
8488;SDS011;4281;45.772;12.852;2024-03-02T00:25:57;8.27;;;5.30;;
8488;SDS011;4281;45.772;12.852;2024-03-02T00:28:26;6.27;;;4.77;;
8488;SDS011;4281;45.772;12.852;2024-03-02T00:30:56;8.33;;;4.93;;
8488;SDS011;4281;45.772;12.852;2024-03-02T00:33:26;5.70;;;4.63;;
8488;SDS011;4281;45.772;12.852;2024-03-02T00:35:55;5.97;;;4.40;;
8488;SDS011;4281;45.772;12.852;2024-03-02T00:38:25;8.87;;;4.97;;
8488;SDS011;4281;45.772;12.852;2024-03-02T00:40:52;6.93;;;5.13;;
8488;SDS011;4281;45.772;12.852;2024-03-02T00:46:15;6.30;;;4.50;;
8488;SDS011;4281;45.772;12.852;2024-03-02T00:48:54;9.27;;;4.90;;
8488;SDS011;4281;45.772;12.852;2024-03-02T00:51:23;4.87;;;4.27;;
8488;SDS011;4281;45.772;12.852;2024-03-02T00:53:53;4.87;;;3.90;;
8488;SDS011;4281;45.772;12.852;2024-03-02T00:56:23;4.17;;;3.53;;
8488;SDS011;4281;45.772;12.852;2024-03-02T00:58:51;5.13;;;3.83;;
8488;SDS011;4281;45.772;12.852;2024-03-02T01:01:20;4.90;;;3.50;;
8488;SDS011;4281;45.772;12.852;2024-03-02T01:03:47;4.27;;;3.43;;
8488;SDS011;4281;45.772;12.852;2024-03-02T01:06:16;7.10;;;3.87;;
8488;SDS011;4281;45.772;12.852;2024-03-02T01:08:44;6.80;;;3.87;;
8488;SDS011;4281;45.772;12.852;2024-03-02T01:11:18;4.77;;;3.00;;
8488;SDS011;4281;45.772;12.852;2024-03-02T01:13:49;6.03;;;3.63;;
8488;SDS011;4281;45.772;12.852;2024-03-02T01:16:18;6.70;;;3.70;;
8488;SDS011;4281;45.772;12.852;2024-03-02T01:18:46;4.63;;;3.10;;
8488;SDS011;4281;45.772;12.852;2024-03-02T01:21:15;5.87;;;3.57;;
8488;SDS011;4281;45.772;12.852;2024-03-02T01:23:43;5.67;;;3.47;;
8488;SDS011;4281;45.772;12.852;2024-03-02T01:26:11;6.20;;;2.90;;
8488;SDS011;4281;45.772;12.852;2024-03-02T01:28:40;4.23;;;2.80;;
8488;SDS011;4281;45.772;12.852;2024-03-02T01:31:08;4.87;;;2.53;;
8488;SDS011;4281;45.772;12.852;2024-03-02T01:33:36;4.13;;;2.77;;
8488;SDS011;4281;45.772;12.852;2024-03-02T01:36:04;4.43;;;2.57;;
8488;SDS011;4281;45.772;12.852;2024-03-02T01:38:32;3.90;;;2.70;;
8488;SDS011;4281;45.772;12.852;2024-03-02T01:41:00;4.07;;;2.53;;
8488;SDS011;4281;45.772;12.852;2024-03-02T01:43:28;3.27;;;2.37;;
8488;SDS011;4281;45.772;12.852;2024-03-02T01:45:58;4.37;;;2.70;;
8488;SDS011;4281;45.772;12.852;2024-03-02T01:48:26;5.03;;;2.77;;
8488;SDS011;4281;45.772;12.852;2024-03-02T01:50:53;6.30;;;2.50;;
8488;SDS011;4281;45.772;12.852;2024-03-02T01:53:22;3.53;;;2.70;;
8488;SDS011;4281;45.772;12.852;2024-03-02T01:55:50;4.40;;;2.70;;
8488;SDS011;4281;45.772;12.852;2024-03-02T01:58:18;4.23;;;2.70;;
8488;SDS011;4281;45.772;12.852;2024-03-02T02:00:46;4.20;;;2.73;;
8488;SDS011;4281;45.772;12.852;2024-03-02T02:03:16;4.37;;;2.77;;
8488;SDS011;4281;45.772;12.852;2024-03-02T02:05:44;6.23;;;2.57;;
8488;SDS011;4281;45.772;12.852;2024-03-02T02:08:12;5.67;;;3.17;;
8488;SDS011;4281;45.772;12.852;2024-03-02T02:10:40;4.73;;;2.90;;
8488;SDS011;4281;45.772;12.852;2024-03-02T02:13:08;4.20;;;2.87;;
8488;SDS011;4281;45.772;12.852;2024-03-02T02:15:36;3.80;;;3.00;;
8488;SDS011;4281;45.772;12.852;2024-03-02T02:18:04;4.70;;;3.27;;
8488;SDS011;4281;45.772;12.852;2024-03-02T02:20:34;5.83;;;2.90;;
8488;SDS011;4281;45.772;12.852;2024-03-02T02:23:03;5.67;;;3.23;;
8488;SDS011;4281;45.772;12.852;2024-03-02T02:25:32;4.40;;;3.07;;
8488;SDS011;4281;45.772;12.852;2024-03-02T02:28:00;5.50;;;3.40;;
8488;SDS011;4281;45.772;12.852;2024-03-02T02:30:29;4.17;;;3.40;;
8488;SDS011;4281;45.772;12.852;2024-03-02T02:32:58;5.20;;;2.77;;
8488;SDS011;4281;45.772;12.852;2024-03-02T02:35:26;5.53;;;3.60;;
8488;SDS011;4281;45.772;12.852;2024-03-02T02:37:55;4.90;;;3.10;;
8488;SDS011;4281;45.772;12.852;2024-03-02T02:40:24;4.10;;;3.07;;
8488;SDS011;4281;45.772;12.852;2024-03-02T02:42:52;4.53;;;3.10;;
8488;SDS011;4281;45.772;12.852;2024-03-02T02:45:20;4.23;;;3.00;;
8488;SDS011;4281;45.772;12.852;2024-03-02T02:47:49;4.53;;;3.13;;
8488;SDS011;4281;45.772;12.852;2024-03-02T02:50:17;4.47;;;3.20;;
8488;SDS011;4281;45.772;12.852;2024-03-02T02:52:45;3.93;;;3.33;;
8488;SDS011;4281;45.772;12.852;2024-03-02T02:55:13;4.10;;;2.77;;
8488;SDS011;4281;45.772;12.852;2024-03-02T02:57:43;4.27;;;3.47;;
8488;SDS011;4281;45.772;12.852;2024-03-02T03:00:13;4.70;;;2.90;;
8488;SDS011;4281;45.772;12.852;2024-03-02T03:02:44;5.57;;;3.30;;
8488;SDS011;4281;45.772;12.852;2024-03-02T03:05:14;5.27;;;2.90;;
8488;SDS011;4281;45.772;12.852;2024-03-02T03:07:42;4.63;;;3.00;;
8488;SDS011;4281;45.772;12.852;2024-03-02T03:10:11;3.93;;;2.60;;
8488;SDS011;4281;45.772;12.852;2024-03-02T03:12:41;4.53;;;2.90;;
8488;SDS011;4281;45.772;12.852;2024-03-02T03:15:12;3.07;;;2.60;;
8488;SDS011;4281;45.772;12.852;2024-03-02T03:17:40;3.63;;;2.50;;
8488;SDS011;4281;45.772;12.852;2024-03-02T03:20:08;4.00;;;2.90;;
8488;SDS011;4281;45.772;12.852;2024-03-02T03:22:37;2.53;;;2.33;;
8488;SDS011;4281;45.772;12.852;2024-03-02T03:25:05;2.83;;;2.50;;
8488;SDS011;4281;45.772;12.852;2024-03-02T03:27:35;2.83;;;2.40;;
8488;SDS011;4281;45.772;12.852;2024-03-02T03:30:03;3.70;;;2.57;;
8488;SDS011;4281;45.772;12.852;2024-03-02T03:32:35;6.67;;;2.63;;
8488;SDS011;4281;45.772;12.852;2024-03-02T03:35:03;3.13;;;2.30;;
8488;SDS011;4281;45.772;12.852;2024-03-02T03:37:32;3.60;;;2.47;;
8488;SDS011;4281;45.772;12.852;2024-03-02T03:40:01;3.73;;;2.40;;
8488;SDS011;4281;45.772;12.852;2024-03-02T03:42:33;4.33;;;2.47;;
8488;SDS011;4281;45.772;12.852;2024-03-02T03:45:01;4.43;;;2.30;;
8488;SDS011;4281;45.772;12.852;2024-03-02T03:47:30;4.40;;;2.47;;
8488;SDS011;4281;45.772;12.852;2024-03-02T03:50:00;3.87;;;2.20;;
8488;SDS011;4281;45.772;12.852;2024-03-02T03:52:29;2.83;;;2.10;;
8488;SDS011;4281;45.772;12.852;2024-03-02T03:54:57;4.23;;;2.63;;
8488;SDS011;4281;45.772;12.852;2024-03-02T03:57:25;3.93;;;2.80;;
8488;SDS011;4281;45.772;12.852;2024-03-02T03:59:53;3.97;;;2.40;;
8488;SDS011;4281;45.772;12.852;2024-03-02T04:02:21;3.37;;;2.87;;
8488;SDS011;4281;45.772;12.852;2024-03-02T04:04:51;3.60;;;2.80;;
8488;SDS011;4281;45.772;12.852;2024-03-02T04:07:20;2.90;;;2.60;;
8488;SDS011;4281;45.772;12.852;2024-03-02T04:09:48;3.57;;;2.77;;
8488;SDS011;4281;45.772;12.852;2024-03-02T04:12:15;5.87;;;2.77;;
8488;SDS011;4281;45.772;12.852;2024-03-02T04:14:43;4.67;;;3.20;;
8488;SDS011;4281;45.772;12.852;2024-03-02T04:17:11;3.47;;;2.70;;
8488;SDS011;4281;45.772;12.852;2024-03-02T04:19:39;4.13;;;2.80;;
8488;SDS011;4281;45.772;12.852;2024-03-02T04:22:07;3.67;;;2.60;;
8488;SDS011;4281;45.772;12.852;2024-03-02T04:24:48;3.00;;;2.37;;
8488;SDS011;4281;45.772;12.852;2024-03-02T04:27:16;4.13;;;2.80;;
8488;SDS011;4281;45.772;12.852;2024-03-02T04:29:44;3.60;;;2.57;;
8488;SDS011;4281;45.772;12.852;2024-03-02T04:32:12;4.73;;;2.50;;
8488;SDS011;4281;45.772;12.852;2024-03-02T04:34:39;3.17;;;2.60;;
8488;SDS011;4281;45.772;12.852;2024-03-02T04:37:08;4.83;;;2.80;;
8488;SDS011;4281;45.772;12.852;2024-03-02T04:39:36;4.60;;;2.80;;
8488;SDS011;4281;45.772;12.852;2024-03-02T04:42:04;5.10;;;3.07;;
8488;SDS011;4281;45.772;12.852;2024-03-02T04:44:32;4.80;;;2.77;;
8488;SDS011;4281;45.772;12.852;2024-03-02T04:47:00;3.93;;;2.50;;
8488;SDS011;4281;45.772;12.852;2024-03-02T04:49:28;3.87;;;2.60;;
8488;SDS011;4281;45.772;12.852;2024-03-02T04:51:56;3.40;;;2.70;;
8488;SDS011;4281;45.772;12.852;2024-03-02T04:54:24;3.97;;;3.03;;
8488;SDS011;4281;45.772;12.852;2024-03-02T04:56:52;4.93;;;2.80;;
8488;SDS011;4281;45.772;12.852;2024-03-02T04:59:22;3.60;;;3.00;;
8488;SDS011;4281;45.772;12.852;2024-03-02T05:01:49;3.60;;;2.97;;
8488;SDS011;4281;45.772;12.852;2024-03-02T05:04:17;3.73;;;2.83;;
8488;SDS011;4281;45.772;12.852;2024-03-02T05:06:45;3.73;;;2.83;;
8488;SDS011;4281;45.772;12.852;2024-03-02T05:09:19;3.87;;;2.80;;
8488;SDS011;4281;45.772;12.852;2024-03-02T05:11:47;3.03;;;2.73;;
8488;SDS011;4281;45.772;12.852;2024-03-02T05:14:39;4.47;;;3.07;;
8488;SDS011;4281;45.772;12.852;2024-03-02T05:17:07;3.93;;;3.23;;
8488;SDS011;4281;45.772;12.852;2024-03-02T05:19:35;3.77;;;2.93;;
8488;SDS011;4281;45.772;12.852;2024-03-02T05:22:03;5.10;;;3.43;;
8488;SDS011;4281;45.772;12.852;2024-03-02T05:24:30;4.70;;;3.53;;
8488;SDS011;4281;45.772;12.852;2024-03-02T05:26:59;3.23;;;2.93;;
8488;SDS011;4281;45.772;12.852;2024-03-02T05:29:27;3.43;;;3.07;;
8488;SDS011;4281;45.772;12.852;2024-03-02T05:31:56;4.20;;;3.20;;
8488;SDS011;4281;45.772;12.852;2024-03-02T05:34:24;4.47;;;3.80;;
8488;SDS011;4281;45.772;12.852;2024-03-02T05:36:52;5.23;;;3.20;;
8488;SDS011;4281;45.772;12.852;2024-03-02T05:39:20;3.63;;;3.30;;
8488;SDS011;4281;45.772;12.852;2024-03-02T05:41:47;5.33;;;3.47;;
8488;SDS011;4281;45.772;12.852;2024-03-02T05:44:15;4.17;;;3.40;;
8488;SDS011;4281;45.772;12.852;2024-03-02T05:46:44;4.97;;;3.40;;
8488;SDS011;4281;45.772;12.852;2024-03-02T05:49:14;3.80;;;3.40;;
8488;SDS011;4281;45.772;12.852;2024-03-02T05:51:41;4.77;;;3.70;;
8488;SDS011;4281;45.772;12.852;2024-03-02T05:54:09;3.80;;;3.40;;
8488;SDS011;4281;45.772;12.852;2024-03-02T05:56:37;5.17;;;3.43;;
8488;SDS011;4281;45.772;12.852;2024-03-02T05:59:05;5.73;;;3.73;;
8488;SDS011;4281;45.772;12.852;2024-03-02T06:01:39;4.27;;;3.10;;
8488;SDS011;4281;45.772;12.852;2024-03-02T06:04:07;4.33;;;3.47;;
8488;SDS011;4281;45.772;12.852;2024-03-02T06:06:36;4.43;;;3.47;;
8488;SDS011;4281;45.772;12.852;2024-03-02T06:09:05;3.77;;;3.33;;
8488;SDS011;4281;45.772;12.852;2024-03-02T06:11:34;5.00;;;3.10;;
8488;SDS011;4281;45.772;12.852;2024-03-02T06:14:02;5.00;;;3.50;;
8488;SDS011;4281;45.772;12.852;2024-03-02T06:16:30;4.47;;;3.73;;
8488;SDS011;4281;45.772;12.852;2024-03-02T06:18:58;5.57;;;4.07;;
8488;SDS011;4281;45.772;12.852;2024-03-02T06:21:26;5.00;;;3.83;;
8488;SDS011;4281;45.772;12.852;2024-03-02T06:23:56;5.60;;;3.67;;
8488;SDS011;4281;45.772;12.852;2024-03-02T06:26:24;6.00;;;3.90;;
8488;SDS011;4281;45.772;12.852;2024-03-02T06:28:52;4.60;;;3.90;;
8488;SDS011;4281;45.772;12.852;2024-03-02T06:31:20;4.27;;;3.80;;
8488;SDS011;4281;45.772;12.852;2024-03-02T06:33:48;4.00;;;3.60;;
8488;SDS011;4281;45.772;12.852;2024-03-02T06:36:16;6.47;;;4.00;;
8488;SDS011;4281;45.772;12.852;2024-03-02T06:38:44;3.90;;;3.50;;
8488;SDS011;4281;45.772;12.852;2024-03-02T06:41:13;4.07;;;3.67;;
8488;SDS011;4281;45.772;12.852;2024-03-02T06:43:41;4.10;;;3.70;;
8488;SDS011;4281;45.772;12.852;2024-03-02T06:46:09;4.80;;;3.77;;
8488;SDS011;4281;45.772;12.852;2024-03-02T06:48:41;3.90;;;3.50;;
8488;SDS011;4281;45.772;12.852;2024-03-02T06:51:09;4.27;;;3.23;;
8488;SDS011;4281;45.772;12.852;2024-03-02T06:53:37;5.27;;;4.13;;
8488;SDS011;4281;45.772;12.852;2024-03-02T06:56:06;4.20;;;3.40;;
8488;SDS011;4281;45.772;12.852;2024-03-02T06:58:36;4.83;;;3.77;;
8488;SDS011;4281;45.772;12.852;2024-03-02T07:01:03;6.57;;;3.80;;
8488;SDS011;4281;45.772;12.852;2024-03-02T07:03:31;4.63;;;3.73;;
8488;SDS011;4281;45.772;12.852;2024-03-02T07:06:00;4.87;;;3.47;;
8488;SDS011;4281;45.772;12.852;2024-03-02T07:08:28;4.77;;;3.50;;
8488;SDS011;4281;45.772;12.852;2024-03-02T07:10:56;3.73;;;3.40;;
8488;SDS011;4281;45.772;12.852;2024-03-02T07:13:24;4.20;;;3.73;;
8488;SDS011;4281;45.772;12.852;2024-03-02T07:15:53;4.60;;;3.97;;
8488;SDS011;4281;45.772;12.852;2024-03-02T07:18:50;4.93;;;3.77;;
8488;SDS011;4281;45.772;12.852;2024-03-02T07:21:19;4.40;;;4.00;;
8488;SDS011;4281;45.772;12.852;2024-03-02T07:23:48;5.43;;;4.03;;
8488;SDS011;4281;45.772;12.852;2024-03-02T07:26:16;4.57;;;4.00;;
8488;SDS011;4281;45.772;12.852;2024-03-02T07:28:48;6.50;;;3.90;;
8488;SDS011;4281;45.772;12.852;2024-03-02T07:31:18;5.77;;;3.80;;
8488;SDS011;4281;45.772;12.852;2024-03-02T07:33:46;4.30;;;3.90;;
8488;SDS011;4281;45.772;12.852;2024-03-02T07:36:14;3.93;;;3.43;;
8488;SDS011;4281;45.772;12.852;2024-03-02T07:38:42;4.37;;;3.77;;
8488;SDS011;4281;45.772;12.852;2024-03-02T07:41:11;3.77;;;3.47;;
8488;SDS011;4281;45.772;12.852;2024-03-02T07:43:39;6.17;;;4.13;;
8488;SDS011;4281;45.772;12.852;2024-03-02T07:46:07;4.77;;;4.20;;
8488;SDS011;4281;45.772;12.852;2024-03-02T07:48:36;6.13;;;4.27;;
8488;SDS011;4281;45.772;12.852;2024-03-02T07:51:05;6.07;;;4.57;;
8488;SDS011;4281;45.772;12.852;2024-03-02T07:53:33;4.83;;;3.70;;
8488;SDS011;4281;45.772;12.852;2024-03-02T07:56:01;5.67;;;4.00;;
8488;SDS011;4281;45.772;12.852;2024-03-02T07:58:29;4.63;;;3.77;;
8488;SDS011;4281;45.772;12.852;2024-03-02T08:01:00;4.40;;;3.83;;
8488;SDS011;4281;45.772;12.852;2024-03-02T08:03:28;5.30;;;4.00;;
8488;SDS011;4281;45.772;12.852;2024-03-02T08:06:00;4.80;;;4.10;;
8488;SDS011;4281;45.772;12.852;2024-03-02T08:08:27;4.07;;;3.63;;
8488;SDS011;4281;45.772;12.852;2024-03-02T08:10:55;5.50;;;3.90;;
8488;SDS011;4281;45.772;12.852;2024-03-02T08:13:26;5.37;;;4.17;;
8488;SDS011;4281;45.772;12.852;2024-03-02T08:15:54;5.40;;;4.17;;
8488;SDS011;4281;45.772;12.852;2024-03-02T08:18:22;4.07;;;3.67;;
8488;SDS011;4281;45.772;12.852;2024-03-02T08:20:50;6.03;;;4.30;;
8488;SDS011;4281;45.772;12.852;2024-03-02T08:23:19;5.37;;;4.30;;
8488;SDS011;4281;45.772;12.852;2024-03-02T08:25:47;6.67;;;4.93;;
8488;SDS011;4281;45.772;12.852;2024-03-02T08:28:15;5.87;;;5.30;;
8488;SDS011;4281;45.772;12.852;2024-03-02T08:30:43;5.90;;;5.30;;
8488;SDS011;4281;45.772;12.852;2024-03-02T08:33:11;5.17;;;4.50;;
8488;SDS011;4281;45.772;12.852;2024-03-02T08:35:39;5.57;;;4.67;;
8488;SDS011;4281;45.772;12.852;2024-03-02T08:38:07;6.67;;;4.70;;
8488;SDS011;4281;45.772;12.852;2024-03-02T08:40:36;4.33;;;3.87;;
8488;SDS011;4281;45.772;12.852;2024-03-02T08:43:04;5.20;;;4.47;;
8488;SDS011;4281;45.772;12.852;2024-03-02T08:45:32;5.63;;;4.43;;
8488;SDS011;4281;45.772;12.852;2024-03-02T08:48:01;5.77;;;4.07;;
8488;SDS011;4281;45.772;12.852;2024-03-02T08:50:29;5.27;;;3.80;;
8488;SDS011;4281;45.772;12.852;2024-03-02T08:52:57;6.13;;;3.90;;
8488;SDS011;4281;45.772;12.852;2024-03-02T08:55:24;4.53;;;3.90;;
8488;SDS011;4281;45.772;12.852;2024-03-02T08:57:54;5.50;;;4.77;;
8488;SDS011;4281;45.772;12.852;2024-03-02T09:00:22;6.13;;;5.63;;
8488;SDS011;4281;45.772;12.852;2024-03-02T09:02:51;12.07;;;10.87;;
8488;SDS011;4281;45.772;12.852;2024-03-02T09:05:18;12.47;;;11.37;;
8488;SDS011;4281;45.772;12.852;2024-03-02T09:07:46;9.40;;;8.60;;
8488;SDS011;4281;45.772;12.852;2024-03-02T09:10:14;8.07;;;7.30;;
8488;SDS011;4281;45.772;12.852;2024-03-02T09:12:42;6.77;;;6.10;;
8488;SDS011;4281;45.772;12.852;2024-03-02T09:15:12;7.70;;;6.17;;
8488;SDS011;4281;45.772;12.852;2024-03-02T09:17:40;5.70;;;5.10;;
8488;SDS011;4281;45.772;12.852;2024-03-02T09:20:08;5.13;;;4.63;;
8488;SDS011;4281;45.772;12.852;2024-03-02T09:22:37;4.70;;;4.30;;
8488;SDS011;4281;45.772;12.852;2024-03-02T09:25:05;5.37;;;4.30;;
8488;SDS011;4281;45.772;12.852;2024-03-02T09:27:36;4.73;;;3.60;;
8488;SDS011;4281;45.772;12.852;2024-03-02T09:30:04;5.13;;;3.40;;
8488;SDS011;4281;45.772;12.852;2024-03-02T09:32:35;3.80;;;3.50;;
8488;SDS011;4281;45.772;12.852;2024-03-02T09:35:04;3.83;;;3.10;;
8488;SDS011;4281;45.772;12.852;2024-03-02T09:37:32;3.17;;;2.87;;
8488;SDS011;4281;45.772;12.852;2024-03-02T09:40:00;3.30;;;2.60;;
8488;SDS011;4281;45.772;12.852;2024-03-02T09:42:28;3.07;;;2.30;;
8488;SDS011;4281;45.772;12.852;2024-03-02T09:44:56;3.20;;;2.90;;
8488;SDS011;4281;45.772;12.852;2024-03-02T09:47:24;3.20;;;2.83;;
8488;SDS011;4281;45.772;12.852;2024-03-02T09:49:54;3.70;;;2.50;;
8488;SDS011;4281;45.772;12.852;2024-03-02T09:52:22;3.73;;;2.30;;
8488;SDS011;4281;45.772;12.852;2024-03-02T09:54:50;2.53;;;2.33;;
8488;SDS011;4281;45.772;12.852;2024-03-02T09:57:18;2.13;;;1.93;;
8488;SDS011;4281;45.772;12.852;2024-03-02T09:59:46;2.17;;;1.97;;
8488;SDS011;4281;45.772;12.852;2024-03-02T10:02:14;2.23;;;1.77;;
8488;SDS011;4281;45.772;12.852;2024-03-02T10:04:42;2.20;;;2.00;;
8488;SDS011;4281;45.772;12.852;2024-03-02T10:07:13;2.63;;;2.23;;
8488;SDS011;4281;45.772;12.852;2024-03-02T10:09:42;2.20;;;1.97;;
8488;SDS011;4281;45.772;12.852;2024-03-02T10:12:12;2.17;;;2.00;;
8488;SDS011;4281;45.772;12.852;2024-03-02T10:14:41;3.13;;;1.83;;
8488;SDS011;4281;45.772;12.852;2024-03-02T10:17:10;3.10;;;1.80;;
8488;SDS011;4281;45.772;12.852;2024-03-02T10:19:39;3.20;;;1.90;;
8488;SDS011;4281;45.772;12.852;2024-03-02T10:22:07;2.40;;;2.00;;
8488;SDS011;4281;45.772;12.852;2024-03-02T10:24:37;1.97;;;1.80;;
8488;SDS011;4281;45.772;12.852;2024-03-02T10:27:09;2.53;;;2.07;;
8488;SDS011;4281;45.772;12.852;2024-03-02T10:29:38;4.47;;;2.40;;
8488;SDS011;4281;45.772;12.852;2024-03-02T10:32:10;3.20;;;2.20;;
8488;SDS011;4281;45.772;12.852;2024-03-02T10:34:39;2.40;;;2.07;;
8488;SDS011;4281;45.772;12.852;2024-03-02T10:37:08;2.97;;;2.20;;
8488;SDS011;4281;45.772;12.852;2024-03-02T10:39:37;2.70;;;2.07;;
8488;SDS011;4281;45.772;12.852;2024-03-02T10:42:07;2.63;;;2.43;;
8488;SDS011;4281;45.772;12.852;2024-03-02T10:44:35;3.10;;;2.67;;
8488;SDS011;4281;45.772;12.852;2024-03-02T10:47:03;4.13;;;2.63;;
8488;SDS011;4281;45.772;12.852;2024-03-02T10:49:32;3.30;;;2.37;;
8488;SDS011;4281;45.772;12.852;2024-03-02T10:52:00;3.67;;;2.83;;
8488;SDS011;4281;45.772;12.852;2024-03-02T10:54:29;2.80;;;2.50;;
8488;SDS011;4281;45.772;12.852;2024-03-02T10:57:05;2.97;;;2.67;;
8488;SDS011;4281;45.772;12.852;2024-03-02T10:59:36;3.57;;;2.30;;
8488;SDS011;4281;45.772;12.852;2024-03-02T11:02:06;3.60;;;2.73;;
8488;SDS011;4281;45.772;12.852;2024-03-02T11:04:35;4.07;;;2.17;;
8488;SDS011;4281;45.772;12.852;2024-03-02T11:07:04;3.73;;;2.50;;
8488;SDS011;4281;45.772;12.852;2024-03-02T11:09:33;3.90;;;2.73;;
8488;SDS011;4281;45.772;12.852;2024-03-02T11:12:02;4.07;;;3.03;;
8488;SDS011;4281;45.772;12.852;2024-03-02T11:14:34;3.90;;;3.10;;
8488;SDS011;4281;45.772;12.852;2024-03-02T11:17:05;4.00;;;2.33;;
8488;SDS011;4281;45.772;12.852;2024-03-02T11:19:34;2.60;;;2.20;;
8488;SDS011;4281;45.772;12.852;2024-03-02T11:22:03;1.83;;;1.73;;
8488;SDS011;4281;45.772;12.852;2024-03-02T11:24:32;2.30;;;2.10;;
8488;SDS011;4281;45.772;12.852;2024-03-02T11:27:05;2.00;;;1.80;;
8488;SDS011;4281;45.772;12.852;2024-03-02T11:29:47;2.00;;;1.80;;
8488;SDS011;4281;45.772;12.852;2024-03-02T11:32:16;4.47;;;1.80;;
8488;SDS011;4281;45.772;12.852;2024-03-02T11:34:45;2.60;;;1.80;;
8488;SDS011;4281;45.772;12.852;2024-03-02T11:37:16;2.30;;;1.67;;
8488;SDS011;4281;45.772;12.852;2024-03-02T11:39:44;2.03;;;1.70;;
8488;SDS011;4281;45.772;12.852;2024-03-02T11:42:17;2.37;;;1.77;;
8488;SDS011;4281;45.772;12.852;2024-03-02T11:44:46;1.87;;;1.70;;
8488;SDS011;4281;45.772;12.852;2024-03-02T11:47:15;2.80;;;2.00;;
8488;SDS011;4281;45.772;12.852;2024-03-02T11:49:44;2.47;;;2.10;;
8488;SDS011;4281;45.772;12.852;2024-03-02T11:52:14;5.30;;;2.57;;
8488;SDS011;4281;45.772;12.852;2024-03-02T11:54:44;3.27;;;2.47;;
8488;SDS011;4281;45.772;12.852;2024-03-02T11:57:20;3.27;;;2.73;;
8488;SDS011;4281;45.772;12.852;2024-03-02T11:59:49;3.20;;;2.50;;
8488;SDS011;4281;45.772;12.852;2024-03-02T12:02:19;2.80;;;2.60;;
8488;SDS011;4281;45.772;12.852;2024-03-02T12:04:47;3.23;;;2.73;;
8488;SDS011;4281;45.772;12.852;2024-03-02T12:07:19;2.37;;;2.17;;
8488;SDS011;4281;45.772;12.852;2024-03-02T12:09:49;2.70;;;2.50;;
8488;SDS011;4281;45.772;12.852;2024-03-02T12:12:19;3.23;;;2.63;;
8488;SDS011;4281;45.772;12.852;2024-03-02T12:14:52;4.90;;;2.97;;
8488;SDS011;4281;45.772;12.852;2024-03-02T12:17:21;4.93;;;3.60;;
8488;SDS011;4281;45.772;12.852;2024-03-02T12:19:50;4.13;;;3.73;;
8488;SDS011;4281;45.772;12.852;2024-03-02T12:22:18;3.47;;;3.10;;
8488;SDS011;4281;45.772;12.852;2024-03-02T12:24:46;3.37;;;2.60;;
8488;SDS011;4281;45.772;12.852;2024-03-02T12:27:14;3.10;;;2.57;;
8488;SDS011;4281;45.772;12.852;2024-03-02T12:29:44;3.53;;;2.63;;
8488;SDS011;4281;45.772;12.852;2024-03-02T12:32:13;3.93;;;2.70;;
8488;SDS011;4281;45.772;12.852;2024-03-02T12:34:41;2.90;;;2.50;;
8488;SDS011;4281;45.772;12.852;2024-03-02T12:37:11;2.30;;;2.10;;
8488;SDS011;4281;45.772;12.852;2024-03-02T12:39:40;2.70;;;2.30;;
8488;SDS011;4281;45.772;12.852;2024-03-02T12:42:07;3.97;;;2.20;;
8488;SDS011;4281;45.772;12.852;2024-03-02T12:44:36;2.73;;;2.00;;
8488;SDS011;4281;45.772;12.852;2024-03-02T12:47:07;2.37;;;2.10;;
8488;SDS011;4281;45.772;12.852;2024-03-02T12:49:36;2.07;;;1.97;;
8488;SDS011;4281;45.772;12.852;2024-03-02T12:52:04;2.23;;;1.80;;
8488;SDS011;4281;45.772;12.852;2024-03-02T12:54:33;2.83;;;1.90;;
8488;SDS011;4281;45.772;12.852;2024-03-02T12:57:02;2.10;;;1.70;;
8488;SDS011;4281;45.772;12.852;2024-03-02T12:59:30;2.00;;;1.90;;
8488;SDS011;4281;45.772;12.852;2024-03-02T13:01:58;2.40;;;2.07;;
8488;SDS011;4281;45.772;12.852;2024-03-02T13:04:29;2.03;;;1.80;;
8488;SDS011;4281;45.772;12.852;2024-03-02T13:06:58;2.10;;;1.70;;
8488;SDS011;4281;45.772;12.852;2024-03-02T13:09:26;1.90;;;1.70;;
8488;SDS011;4281;45.772;12.852;2024-03-02T13:11:54;1.40;;;1.20;;
8488;SDS011;4281;45.772;12.852;2024-03-02T13:14:23;2.63;;;1.57;;
8488;SDS011;4281;45.772;12.852;2024-03-02T13:16:53;2.27;;;1.60;;
8488;SDS011;4281;45.772;12.852;2024-03-02T13:19:23;2.23;;;1.50;;
8488;SDS011;4281;45.772;12.852;2024-03-02T13:21:53;2.20;;;1.40;;
8488;SDS011;4281;45.772;12.852;2024-03-02T13:24:21;2.53;;;1.47;;
8488;SDS011;4281;45.772;12.852;2024-03-02T13:26:52;1.57;;;1.40;;
8488;SDS011;4281;45.772;12.852;2024-03-02T13:29:21;2.07;;;1.20;;
8488;SDS011;4281;45.772;12.852;2024-03-02T13:31:50;1.70;;;1.30;;
8488;SDS011;4281;45.772;12.852;2024-03-02T13:34:19;1.83;;;1.20;;
8488;SDS011;4281;45.772;12.852;2024-03-02T13:36:47;1.63;;;1.20;;
8488;SDS011;4281;45.772;12.852;2024-03-02T13:39:17;1.77;;;1.13;;
8488;SDS011;4281;45.772;12.852;2024-03-02T13:41:45;2.30;;;1.20;;
8488;SDS011;4281;45.772;12.852;2024-03-02T13:44:19;1.30;;;1.10;;
8488;SDS011;4281;45.772;12.852;2024-03-02T13:46:48;2.43;;;1.47;;
8488;SDS011;4281;45.772;12.852;2024-03-02T13:49:18;2.37;;;1.60;;
8488;SDS011;4281;45.772;12.852;2024-03-02T13:51:46;2.93;;;1.70;;
8488;SDS011;4281;45.772;12.852;2024-03-02T13:54:14;2.83;;;1.50;;
8488;SDS011;4281;45.772;12.852;2024-03-02T13:56:43;2.13;;;1.33;;
8488;SDS011;4281;45.772;12.852;2024-03-02T13:59:13;2.07;;;1.50;;
8488;SDS011;4281;45.772;12.852;2024-03-02T14:01:41;2.20;;;1.63;;
8488;SDS011;4281;45.772;12.852;2024-03-02T14:04:10;2.17;;;1.50;;
8488;SDS011;4281;45.772;12.852;2024-03-02T14:06:39;1.73;;;1.30;;
8488;SDS011;4281;45.772;12.852;2024-03-02T14:09:09;2.63;;;1.70;;
8488;SDS011;4281;45.772;12.852;2024-03-02T14:11:37;2.97;;;1.80;;
8488;SDS011;4281;45.772;12.852;2024-03-02T14:14:07;2.07;;;1.60;;
8488;SDS011;4281;45.772;12.852;2024-03-02T14:16:35;2.27;;;1.60;;
8488;SDS011;4281;45.772;12.852;2024-03-02T14:19:03;2.47;;;1.77;;
8488;SDS011;4281;45.772;12.852;2024-03-02T14:21:31;2.03;;;1.93;;
8488;SDS011;4281;45.772;12.852;2024-03-02T14:24:02;1.83;;;1.70;;
8488;SDS011;4281;45.772;12.852;2024-03-02T14:26:30;2.17;;;1.80;;
8488;SDS011;4281;45.772;12.852;2024-03-02T14:28:59;2.23;;;1.90;;
8488;SDS011;4281;45.772;12.852;2024-03-02T14:31:29;2.77;;;1.90;;
8488;SDS011;4281;45.772;12.852;2024-03-02T14:33:58;2.70;;;1.90;;
8488;SDS011;4281;45.772;12.852;2024-03-02T14:36:27;2.23;;;1.53;;
8488;SDS011;4281;45.772;12.852;2024-03-02T14:38:55;2.63;;;1.60;;
8488;SDS011;4281;45.772;12.852;2024-03-02T14:41:23;2.07;;;1.50;;
8488;SDS011;4281;45.772;12.852;2024-03-02T14:43:51;1.50;;;1.40;;
8488;SDS011;4281;45.772;12.852;2024-03-02T14:46:19;1.97;;;1.77;;
8488;SDS011;4281;45.772;12.852;2024-03-02T14:48:48;1.80;;;1.70;;
8488;SDS011;4281;45.772;12.852;2024-03-02T14:51:16;1.87;;;1.70;;
8488;SDS011;4281;45.772;12.852;2024-03-02T14:53:44;1.90;;;1.70;;
8488;SDS011;4281;45.772;12.852;2024-03-02T14:56:12;1.90;;;1.57;;
8488;SDS011;4281;45.772;12.852;2024-03-02T14:58:40;2.00;;;1.70;;
8488;SDS011;4281;45.772;12.852;2024-03-02T15:01:10;2.73;;;1.80;;
8488;SDS011;4281;45.772;12.852;2024-03-02T15:03:39;2.30;;;2.10;;
8488;SDS011;4281;45.772;12.852;2024-03-02T15:06:09;2.10;;;1.87;;
8488;SDS011;4281;45.772;12.852;2024-03-02T15:08:37;2.40;;;2.20;;
8488;SDS011;4281;45.772;12.852;2024-03-02T15:11:07;2.60;;;2.10;;
8488;SDS011;4281;45.772;12.852;2024-03-02T15:13:36;2.40;;;2.20;;